sensor_id;sensor_type;location;lat;lon;timestamp;P1;durP1;ratioP1;P2;durP2;ratioP2
59306;SDS011;47983;53.016;-2.260;2023-09-19T00:00:57;11.15;;;1.45;;
59306;SDS011;47983;53.016;-2.260;2023-09-19T00:03:25;11.60;;;1.88;;
59306;SDS011;47983;53.016;-2.260;2023-09-19T00:05:53;9.27;;;2.08;;
59306;SDS011;47983;53.016;-2.260;2023-09-19T00:08:22;7.13;;;1.25;;
59306;SDS011;47983;53.016;-2.260;2023-09-19T00:10:50;8.75;;;1.20;;
59306;SDS011;47983;53.016;-2.260;2023-09-19T00:13:17;13.85;;;1.77;;
59306;SDS011;47983;53.016;-2.260;2023-09-19T00:15:47;13.80;;;1.55;;
59306;SDS011;47983;53.016;-2.260;2023-09-19T00:18:17;12.63;;;1.77;;
59306;SDS011;47983;53.016;-2.260;2023-09-19T00:20:48;12.77;;;1.55;;
59306;SDS011;47983;53.016;-2.260;2023-09-19T00:23:17;18.55;;;1.98;;
59306;SDS011;47983;53.016;-2.260;2023-09-19T00:25:47;8.60;;;1.45;;
59306;SDS011;47983;53.016;-2.260;2023-09-19T00:28:15;10.73;;;1.73;;
59306;SDS011;47983;53.016;-2.260;2023-09-19T00:30:44;5.80;;;1.30;;
59306;SDS011;47983;53.016;-2.260;2023-09-19T00:33:17;10.43;;;1.73;;
59306;SDS011;47983;53.016;-2.260;2023-09-19T00:35:47;11.90;;;1.60;;
59306;SDS011;47983;53.016;-2.260;2023-09-19T00:38:21;9.73;;;1.45;;
59306;SDS011;47983;53.016;-2.260;2023-09-19T00:40:54;11.93;;;1.45;;
59306;SDS011;47983;53.016;-2.260;2023-09-19T00:43:27;9.38;;;1.58;;
59306;SDS011;47983;53.016;-2.260;2023-09-19T00:45:55;11.85;;;1.77;;
59306;SDS011;47983;53.016;-2.260;2023-09-19T00:48:24;12.15;;;1.83;;
59306;SDS011;47983;53.016;-2.260;2023-09-19T00:50:57;13.07;;;1.58;;
59306;SDS011;47983;53.016;-2.260;2023-09-19T00:53:29;16.08;;;1.88;;
59306;SDS011;47983;53.016;-2.260;2023-09-19T00:55:58;10.70;;;1.65;;
59306;SDS011;47983;53.016;-2.260;2023-09-19T00:58:26;10.25;;;1.48;;
59306;SDS011;47983;53.016;-2.260;2023-09-19T01:01:01;16.88;;;2.60;;
59306;SDS011;47983;53.016;-2.260;2023-09-19T01:03:31;12.27;;;1.92;;
59306;SDS011;47983;53.016;-2.260;2023-09-19T01:05:59;9.70;;;1.80;;
59306;SDS011;47983;53.016;-2.260;2023-09-19T01:08:28;12.55;;;2.13;;
59306;SDS011;47983;53.016;-2.260;2023-09-19T01:10:59;13.73;;;1.95;;
59306;SDS011;47983;53.016;-2.260;2023-09-19T01:31:09;13.45;;;1.88;;
59306;SDS011;47983;53.016;-2.260;2023-09-19T01:36:35;16.52;;;2.33;;
59306;SDS011;47983;53.016;-2.260;2023-09-19T01:39:10;15.63;;;2.70;;
59306;SDS011;47983;53.016;-2.260;2023-09-19T01:41:59;14.25;;;2.00;;
59306;SDS011;47983;53.016;-2.260;2023-09-19T01:44:36;15.02;;;1.80;;
59306;SDS011;47983;53.016;-2.260;2023-09-19T01:47:37;15.48;;;2.45;;
59306;SDS011;47983;53.016;-2.260;2023-09-19T01:55:37;15.35;;;2.85;;
59306;SDS011;47983;53.016;-2.260;2023-09-19T01:58:14;12.18;;;2.10;;
59306;SDS011;47983;53.016;-2.260;2023-09-19T02:00:48;16.75;;;1.88;;
59306;SDS011;47983;53.016;-2.260;2023-09-19T02:03:20;16.35;;;2.30;;
59306;SDS011;47983;53.016;-2.260;2023-09-19T02:05:52;11.60;;;1.70;;
59306;SDS011;47983;53.016;-2.260;2023-09-19T02:08:21;13.63;;;2.10;;
59306;SDS011;47983;53.016;-2.260;2023-09-19T02:10:51;18.40;;;2.28;;
59306;SDS011;47983;53.016;-2.260;2023-09-19T02:13:20;16.77;;;2.47;;
59306;SDS011;47983;53.016;-2.260;2023-09-19T02:15:52;15.10;;;2.45;;
59306;SDS011;47983;53.016;-2.260;2023-09-19T02:18:19;14.68;;;2.08;;
59306;SDS011;47983;53.016;-2.260;2023-09-19T02:20:47;17.05;;;2.40;;
59306;SDS011;47983;53.016;-2.260;2023-09-19T02:23:15;13.05;;;2.20;;
59306;SDS011;47983;53.016;-2.260;2023-09-19T02:25:42;16.80;;;2.40;;
59306;SDS011;47983;53.016;-2.260;2023-09-19T02:28:18;14.65;;;2.47;;
59306;SDS011;47983;53.016;-2.260;2023-09-19T02:30:49;17.95;;;2.85;;
59306;SDS011;47983;53.016;-2.260;2023-09-19T02:33:17;12.32;;;2.50;;
59306;SDS011;47983;53.016;-2.260;2023-09-19T02:35:44;13.90;;;2.17;;
59306;SDS011;47983;53.016;-2.260;2023-09-19T02:38:13;11.93;;;2.03;;
59306;SDS011;47983;53.016;-2.260;2023-09-19T02:40:41;14.82;;;2.70;;
59306;SDS011;47983;53.016;-2.260;2023-09-19T02:43:10;15.40;;;2.55;;
59306;SDS011;47983;53.016;-2.260;2023-09-19T02:45:38;17.80;;;2.03;;
59306;SDS011;47983;53.016;-2.260;2023-09-19T02:48:06;17.10;;;2.20;;
59306;SDS011;47983;53.016;-2.260;2023-09-19T02:50:34;17.05;;;2.55;;
59306;SDS011;47983;53.016;-2.260;2023-09-19T02:53:02;14.48;;;2.35;;
59306;SDS011;47983;53.016;-2.260;2023-09-19T02:55:30;14.48;;;2.95;;
59306;SDS011;47983;53.016;-2.260;2023-09-19T02:57:59;18.65;;;2.33;;
59306;SDS011;47983;53.016;-2.260;2023-09-19T03:00:28;18.02;;;2.33;;
59306;SDS011;47983;53.016;-2.260;2023-09-19T03:02:56;16.23;;;2.67;;
59306;SDS011;47983;53.016;-2.260;2023-09-19T03:05:25;20.63;;;2.38;;
59306;SDS011;47983;53.016;-2.260;2023-09-19T03:07:53;10.07;;;1.88;;
59306;SDS011;47983;53.016;-2.260;2023-09-19T03:10:23;15.30;;;2.38;;
59306;SDS011;47983;53.016;-2.260;2023-09-19T03:12:52;19.45;;;2.58;;
59306;SDS011;47983;53.016;-2.260;2023-09-19T03:15:21;15.27;;;2.55;;
59306;SDS011;47983;53.016;-2.260;2023-09-19T03:17:51;22.00;;;2.75;;
59306;SDS011;47983;53.016;-2.260;2023-09-19T03:20:22;11.82;;;2.13;;
59306;SDS011;47983;53.016;-2.260;2023-09-19T03:22:50;11.48;;;2.17;;
59306;SDS011;47983;53.016;-2.260;2023-09-19T03:25:19;18.13;;;1.93;;
59306;SDS011;47983;53.016;-2.260;2023-09-19T03:27:51;21.98;;;2.40;;
59306;SDS011;47983;53.016;-2.260;2023-09-19T03:30:21;18.20;;;4.25;;
59306;SDS011;47983;53.016;-2.260;2023-09-19T03:32:49;17.33;;;2.33;;
59306;SDS011;47983;53.016;-2.260;2023-09-19T03:35:18;13.68;;;2.53;;
59306;SDS011;47983;53.016;-2.260;2023-09-19T03:37:47;14.40;;;2.75;;
59306;SDS011;47983;53.016;-2.260;2023-09-19T03:40:15;9.70;;;1.98;;
59306;SDS011;47983;53.016;-2.260;2023-09-19T03:42:44;15.80;;;2.80;;
59306;SDS011;47983;53.016;-2.260;2023-09-19T03:45:13;9.60;;;2.15;;
59306;SDS011;47983;53.016;-2.260;2023-09-19T03:47:52;19.02;;;2.70;;
59306;SDS011;47983;53.016;-2.260;2023-09-19T03:50:22;15.10;;;2.33;;
59306;SDS011;47983;53.016;-2.260;2023-09-19T03:52:55;15.05;;;1.95;;
59306;SDS011;47983;53.016;-2.260;2023-09-19T03:55:25;12.63;;;1.83;;
59306;SDS011;47983;53.016;-2.260;2023-09-19T03:57:52;17.75;;;2.70;;
59306;SDS011;47983;53.016;-2.260;2023-09-19T04:00:20;15.02;;;2.42;;
59306;SDS011;47983;53.016;-2.260;2023-09-19T04:02:51;15.05;;;2.17;;
59306;SDS011;47983;53.016;-2.260;2023-09-19T04:05:19;16.33;;;1.95;;
59306;SDS011;47983;53.016;-2.260;2023-09-19T04:07:47;14.18;;;2.38;;
59306;SDS011;47983;53.016;-2.260;2023-09-19T04:10:14;17.63;;;2.08;;
59306;SDS011;47983;53.016;-2.260;2023-09-19T04:12:52;18.38;;;2.58;;
59306;SDS011;47983;53.016;-2.260;2023-09-19T04:15:23;17.77;;;2.72;;
59306;SDS011;47983;53.016;-2.260;2023-09-19T04:17:53;15.88;;;1.65;;
59306;SDS011;47983;53.016;-2.260;2023-09-19T04:20:21;10.18;;;2.15;;
59306;SDS011;47983;53.016;-2.260;2023-09-19T04:22:51;15.82;;;2.45;;
59306;SDS011;47983;53.016;-2.260;2023-09-19T04:25:19;15.43;;;2.50;;
59306;SDS011;47983;53.016;-2.260;2023-09-19T04:27:48;20.42;;;2.53;;
59306;SDS011;47983;53.016;-2.260;2023-09-19T04:30:15;15.68;;;3.13;;
59306;SDS011;47983;53.016;-2.260;2023-09-19T04:32:43;16.55;;;2.53;;
59306;SDS011;47983;53.016;-2.260;2023-09-19T04:35:10;16.65;;;2.33;;
59306;SDS011;47983;53.016;-2.260;2023-09-19T04:37:38;22.88;;;3.22;;
59306;SDS011;47983;53.016;-2.260;2023-09-19T04:40:07;21.25;;;2.90;;
59306;SDS011;47983;53.016;-2.260;2023-09-19T04:42:40;24.35;;;3.00;;
59306;SDS011;47983;53.016;-2.260;2023-09-19T04:45:09;16.67;;;2.28;;
59306;SDS011;47983;53.016;-2.260;2023-09-19T04:47:37;15.70;;;2.47;;
59306;SDS011;47983;53.016;-2.260;2023-09-19T04:50:08;18.52;;;2.67;;
59306;SDS011;47983;53.016;-2.260;2023-09-19T04:52:41;14.45;;;2.17;;
59306;SDS011;47983;53.016;-2.260;2023-09-19T04:55:14;18.73;;;2.95;;
59306;SDS011;47983;53.016;-2.260;2023-09-19T04:57:46;14.32;;;2.35;;
59306;SDS011;47983;53.016;-2.260;2023-09-19T05:00:18;17.77;;;3.17;;
59306;SDS011;47983;53.016;-2.260;2023-09-19T05:02:55;22.15;;;3.03;;
59306;SDS011;47983;53.016;-2.260;2023-09-19T05:05:24;16.15;;;2.95;;
59306;SDS011;47983;53.016;-2.260;2023-09-19T05:07:53;16.20;;;3.70;;
59306;SDS011;47983;53.016;-2.260;2023-09-19T05:10:21;19.35;;;3.55;;
59306;SDS011;47983;53.016;-2.260;2023-09-19T05:12:52;19.00;;;3.50;;
59306;SDS011;47983;53.016;-2.260;2023-09-19T05:15:20;17.60;;;3.50;;
59306;SDS011;47983;53.016;-2.260;2023-09-19T05:17:48;17.98;;;2.63;;
59306;SDS011;47983;53.016;-2.260;2023-09-19T05:20:22;13.18;;;2.97;;
59306;SDS011;47983;53.016;-2.260;2023-09-19T05:23:06;16.17;;;3.00;;
59306;SDS011;47983;53.016;-2.260;2023-09-19T05:25:36;15.73;;;3.10;;
59306;SDS011;47983;53.016;-2.260;2023-09-19T05:28:06;13.90;;;2.60;;
59306;SDS011;47983;53.016;-2.260;2023-09-19T05:30:35;11.50;;;3.28;;
59306;SDS011;47983;53.016;-2.260;2023-09-19T05:33:05;16.08;;;3.30;;
59306;SDS011;47983;53.016;-2.260;2023-09-19T05:35:34;15.63;;;1.92;;
59306;SDS011;47983;53.016;-2.260;2023-09-19T05:38:09;15.55;;;2.95;;
59306;SDS011;47983;53.016;-2.260;2023-09-19T05:40:37;10.30;;;3.38;;
59306;SDS011;47983;53.016;-2.260;2023-09-19T05:43:06;12.75;;;3.42;;
59306;SDS011;47983;53.016;-2.260;2023-09-19T05:45:34;13.18;;;2.38;;
59306;SDS011;47983;53.016;-2.260;2023-09-19T05:48:09;11.50;;;2.15;;
59306;SDS011;47983;53.016;-2.260;2023-09-19T05:50:39;9.38;;;2.85;;
59306;SDS011;47983;53.016;-2.260;2023-09-19T05:53:07;18.35;;;3.08;;
59306;SDS011;47983;53.016;-2.260;2023-09-19T05:55:39;10.68;;;2.22;;
59306;SDS011;47983;53.016;-2.260;2023-09-19T05:58:07;20.45;;;2.30;;
59306;SDS011;47983;53.016;-2.260;2023-09-19T06:00:35;13.00;;;2.67;;
59306;SDS011;47983;53.016;-2.260;2023-09-19T06:03:05;12.77;;;2.10;;
59306;SDS011;47983;53.016;-2.260;2023-09-19T06:05:33;6.28;;;2.13;;
59306;SDS011;47983;53.016;-2.260;2023-09-19T06:08:01;9.73;;;1.60;;
59306;SDS011;47983;53.016;-2.260;2023-09-19T06:10:35;9.88;;;1.92;;
59306;SDS011;47983;53.016;-2.260;2023-09-19T06:13:03;9.95;;;2.50;;
59306;SDS011;47983;53.016;-2.260;2023-09-19T06:15:37;8.85;;;2.33;;
59306;SDS011;47983;53.016;-2.260;2023-09-19T06:18:10;12.88;;;2.33;;
59306;SDS011;47983;53.016;-2.260;2023-09-19T06:20:41;16.52;;;2.80;;
59306;SDS011;47983;53.016;-2.260;2023-09-19T06:23:12;9.18;;;2.50;;
59306;SDS011;47983;53.016;-2.260;2023-09-19T06:25:40;12.05;;;3.67;;
59306;SDS011;47983;53.016;-2.260;2023-09-19T06:28:09;12.15;;;2.40;;
59306;SDS011;47983;53.016;-2.260;2023-09-19T06:30:40;12.57;;;2.75;;
59306;SDS011;47983;53.016;-2.260;2023-09-19T06:33:07;11.55;;;2.05;;
59306;SDS011;47983;53.016;-2.260;2023-09-19T06:35:36;10.20;;;1.85;;
59306;SDS011;47983;53.016;-2.260;2023-09-19T06:38:04;7.53;;;2.05;;
59306;SDS011;47983;53.016;-2.260;2023-09-19T06:40:35;10.00;;;2.50;;
59306;SDS011;47983;53.016;-2.260;2023-09-19T06:43:03;9.68;;;2.15;;
59306;SDS011;47983;53.016;-2.260;2023-09-19T06:45:32;9.53;;;2.00;;
59306;SDS011;47983;53.016;-2.260;2023-09-19T06:48:00;13.13;;;2.58;;
59306;SDS011;47983;53.016;-2.260;2023-09-19T06:50:30;7.55;;;2.08;;
59306;SDS011;47983;53.016;-2.260;2023-09-19T06:55:28;10.13;;;1.90;;
59306;SDS011;47983;53.016;-2.260;2023-09-19T06:58:00;11.15;;;2.22;;
59306;SDS011;47983;53.016;-2.260;2023-09-19T07:00:28;12.65;;;2.67;;
59306;SDS011;47983;53.016;-2.260;2023-09-19T07:02:59;13.68;;;2.40;;
59306;SDS011;47983;53.016;-2.260;2023-09-19T07:05:28;10.65;;;2.70;;
59306;SDS011;47983;53.016;-2.260;2023-09-19T07:08:01;10.10;;;2.47;;
59306;SDS011;47983;53.016;-2.260;2023-09-19T07:10:30;8.27;;;2.50;;
59306;SDS011;47983;53.016;-2.260;2023-09-19T07:13:01;14.05;;;3.03;;
59306;SDS011;47983;53.016;-2.260;2023-09-19T07:15:32;9.30;;;3.13;;
59306;SDS011;47983;53.016;-2.260;2023-09-19T07:18:06;11.50;;;2.28;;
59306;SDS011;47983;53.016;-2.260;2023-09-19T07:20:38;12.07;;;2.60;;
59306;SDS011;47983;53.016;-2.260;2023-09-19T07:23:06;10.55;;;2.67;;
59306;SDS011;47983;53.016;-2.260;2023-09-19T07:25:34;15.48;;;2.60;;
59306;SDS011;47983;53.016;-2.260;2023-09-19T07:28:03;12.03;;;2.10;;
59306;SDS011;47983;53.016;-2.260;2023-09-19T07:30:31;14.25;;;2.90;;
59306;SDS011;47983;53.016;-2.260;2023-09-19T07:32:59;13.43;;;2.72;;
59306;SDS011;47983;53.016;-2.260;2023-09-19T07:35:27;9.25;;;2.20;;
59306;SDS011;47983;53.016;-2.260;2023-09-19T07:37:55;8.60;;;2.53;;
59306;SDS011;47983;53.016;-2.260;2023-09-19T07:40:24;11.50;;;2.28;;
59306;SDS011;47983;53.016;-2.260;2023-09-19T07:42:55;7.03;;;1.95;;
59306;SDS011;47983;53.016;-2.260;2023-09-19T07:45:23;4.63;;;1.63;;
59306;SDS011;47983;53.016;-2.260;2023-09-19T07:47:52;8.23;;;2.27;;
59306;SDS011;47983;53.016;-2.260;2023-09-19T07:50:20;7.20;;;1.52;;
59306;SDS011;47983;53.016;-2.260;2023-09-19T07:52:48;5.95;;;1.60;;
59306;SDS011;47983;53.016;-2.260;2023-09-19T07:55:20;7.20;;;1.58;;
59306;SDS011;47983;53.016;-2.260;2023-09-19T07:57:54;5.10;;;1.10;;
59306;SDS011;47983;53.016;-2.260;2023-09-19T08:00:22;5.43;;;1.35;;
59306;SDS011;47983;53.016;-2.260;2023-09-19T08:02:49;4.65;;;1.25;;
59306;SDS011;47983;53.016;-2.260;2023-09-19T08:05:27;3.92;;;1.20;;
59306;SDS011;47983;53.016;-2.260;2023-09-19T08:07:55;5.53;;;1.20;;
59306;SDS011;47983;53.016;-2.260;2023-09-19T08:10:24;5.65;;;1.50;;
59306;SDS011;47983;53.016;-2.260;2023-09-19T08:12:55;5.15;;;1.20;;
59306;SDS011;47983;53.016;-2.260;2023-09-19T08:15:25;8.80;;;1.52;;
59306;SDS011;47983;53.016;-2.260;2023-09-19T08:17:53;7.03;;;1.10;;
59306;SDS011;47983;53.016;-2.260;2023-09-19T08:20:20;3.30;;;1.00;;
59306;SDS011;47983;53.016;-2.260;2023-09-19T08:25:20;4.38;;;0.90;;
59306;SDS011;47983;53.016;-2.260;2023-09-19T08:27:49;5.47;;;1.10;;
59306;SDS011;47983;53.016;-2.260;2023-09-19T08:30:18;2.70;;;0.85;;
59306;SDS011;47983;53.016;-2.260;2023-09-19T08:32:58;3.95;;;0.80;;
59306;SDS011;47983;53.016;-2.260;2023-09-19T08:35:31;5.18;;;1.08;;
59306;SDS011;47983;53.016;-2.260;2023-09-19T08:37:58;4.50;;;0.93;;
59306;SDS011;47983;53.016;-2.260;2023-09-19T08:40:31;4.80;;;0.70;;
59306;SDS011;47983;53.016;-2.260;2023-09-19T08:43:00;4.75;;;0.85;;
59306;SDS011;47983;53.016;-2.260;2023-09-19T08:45:28;3.20;;;0.93;;
59306;SDS011;47983;53.016;-2.260;2023-09-19T08:54:01;3.75;;;0.63;;
59306;SDS011;47983;53.016;-2.260;2023-09-19T08:56:33;3.10;;;0.50;;
59306;SDS011;47983;53.016;-2.260;2023-09-19T08:59:02;6.20;;;0.60;;
59306;SDS011;47983;53.016;-2.260;2023-09-19T09:01:31;4.93;;;0.50;;
59306;SDS011;47983;53.016;-2.260;2023-09-19T09:04:01;2.55;;;0.60;;
59306;SDS011;47983;53.016;-2.260;2023-09-19T09:06:29;2.60;;;0.50;;
59306;SDS011;47983;53.016;-2.260;2023-09-19T09:08:59;3.25;;;0.47;;
59306;SDS011;47983;53.016;-2.260;2023-09-19T09:11:28;0.90;;;0.47;;
59306;SDS011;47983;53.016;-2.260;2023-09-19T09:13:56;2.72;;;0.40;;
59306;SDS011;47983;53.016;-2.260;2023-09-19T09:16:24;0.20;;;0.15;;
59306;SDS011;47983;53.016;-2.260;2023-09-19T09:18:53;0.40;;;0.20;;
59306;SDS011;47983;53.016;-2.260;2023-09-19T09:21:22;0.55;;;0.30;;
59306;SDS011;47983;53.016;-2.260;2023-09-19T09:23:53;0.35;;;0.17;;
59306;SDS011;47983;53.016;-2.260;2023-09-19T09:26:40;0.20;;;0.10;;
59306;SDS011;47983;53.016;-2.260;2023-09-19T09:29:10;1.25;;;0.13;;
59306;SDS011;47983;53.016;-2.260;2023-09-19T09:31:38;0.55;;;0.10;;
59306;SDS011;47983;53.016;-2.260;2023-09-19T09:34:06;0.30;;;0.10;;
59306;SDS011;47983;53.016;-2.260;2023-09-19T09:36:37;1.27;;;0.10;;
59306;SDS011;47983;53.016;-2.260;2023-09-19T09:39:08;0.45;;;0.13;;
59306;SDS011;47983;53.016;-2.260;2023-09-19T09:41:46;3.08;;;0.08;;
59306;SDS011;47983;53.016;-2.260;2023-09-19T09:44:14;0.00;;;0.00;;
59306;SDS011;47983;53.016;-2.260;2023-09-19T09:46:48;0.25;;;0.25;;
59306;SDS011;47983;53.016;-2.260;2023-09-19T09:49:26;0.47;;;0.00;;
59306;SDS011;47983;53.016;-2.260;2023-09-19T09:52:02;3.42;;;0.20;;
59306;SDS011;47983;53.016;-2.260;2023-09-19T09:54:38;0.98;;;0.05;;
59306;SDS011;47983;53.016;-2.260;2023-09-19T09:57:26;0.68;;;0.05;;
59306;SDS011;47983;53.016;-2.260;2023-09-19T09:59:56;0.43;;;0.10;;
59306;SDS011;47983;53.016;-2.260;2023-09-19T10:02:30;0.30;;;0.00;;
59306;SDS011;47983;53.016;-2.260;2023-09-19T10:05:13;0.10;;;0.00;;
59306;SDS011;47983;53.016;-2.260;2023-09-19T10:07:50;0.08;;;0.00;;
59306;SDS011;47983;53.016;-2.260;2023-09-19T10:10:30;0.20;;;0.10;;
59306;SDS011;47983;53.016;-2.260;2023-09-19T10:13:21;0.63;;;0.00;;
59306;SDS011;47983;53.016;-2.260;2023-09-19T10:15:54;1.33;;;0.00;;
59306;SDS011;47983;53.016;-2.260;2023-09-19T10:18:26;0.13;;;0.00;;
59306;SDS011;47983;53.016;-2.260;2023-09-19T10:20:56;0.45;;;0.00;;
59306;SDS011;47983;53.016;-2.260;2023-09-19T10:23:25;0.13;;;0.00;;
59306;SDS011;47983;53.016;-2.260;2023-09-19T10:25:57;0.22;;;0.08;;
59306;SDS011;47983;53.016;-2.260;2023-09-19T10:28:29;1.67;;;0.10;;
59306;SDS011;47983;53.016;-2.260;2023-09-19T10:30:59;0.35;;;0.00;;
59306;SDS011;47983;53.016;-2.260;2023-09-19T10:33:29;0.30;;;0.10;;
59306;SDS011;47983;53.016;-2.260;2023-09-19T10:36:07;0.40;;;0.05;;
59306;SDS011;47983;53.016;-2.260;2023-09-19T10:38:38;1.20;;;0.10;;
59306;SDS011;47983;53.016;-2.260;2023-09-19T10:41:08;0.10;;;0.10;;
59306;SDS011;47983;53.016;-2.260;2023-09-19T10:43:37;0.38;;;0.10;;
59306;SDS011;47983;53.016;-2.260;2023-09-19T10:46:07;0.45;;;0.10;;
59306;SDS011;47983;53.016;-2.260;2023-09-19T10:48:38;0.38;;;0.10;;
59306;SDS011;47983;53.016;-2.260;2023-09-19T10:51:09;1.27;;;0.10;;
59306;SDS011;47983;53.016;-2.260;2023-09-19T10:56:19;1.00;;;0.20;;
59306;SDS011;47983;53.016;-2.260;2023-09-19T10:59:14;0.35;;;0.28;;
59306;SDS011;47983;53.016;-2.260;2023-09-19T11:07:01;2.00;;;0.30;;
59306;SDS011;47983;53.016;-2.260;2023-09-19T11:09:49;0.20;;;0.20;;
59306;SDS011;47983;53.016;-2.260;2023-09-19T11:19:07;0.75;;;0.10;;
59306;SDS011;47983;53.016;-2.260;2023-09-19T11:26:57;1.30;;;0.10;;
59306;SDS011;47983;53.016;-2.260;2023-09-19T11:29:46;0.28;;;0.15;;
59306;SDS011;47983;53.016;-2.260;2023-09-19T11:32:16;0.10;;;0.10;;
59306;SDS011;47983;53.016;-2.260;2023-09-19T11:34:45;3.25;;;0.20;;
59306;SDS011;47983;53.016;-2.260;2023-09-19T11:42:45;0.00;;;0.00;;
59306;SDS011;47983;53.016;-2.260;2023-09-19T11:48:26;0.47;;;0.13;;
59306;SDS011;47983;53.016;-2.260;2023-09-19T11:50:56;0.65;;;0.17;;
59306;SDS011;47983;53.016;-2.260;2023-09-19T11:53:31;0.10;;;0.10;;
59306;SDS011;47983;53.016;-2.260;2023-09-19T11:56:00;0.93;;;0.10;;
59306;SDS011;47983;53.016;-2.260;2023-09-19T11:58:28;0.57;;;0.10;;
59306;SDS011;47983;53.016;-2.260;2023-09-19T12:00:57;0.10;;;0.10;;
59306;SDS011;47983;53.016;-2.260;2023-09-19T12:03:29;0.38;;;0.10;;
59306;SDS011;47983;53.016;-2.260;2023-09-19T12:05:59;0.10;;;0.00;;
59306;SDS011;47983;53.016;-2.260;2023-09-19T12:08:29;0.28;;;0.10;;
59306;SDS011;47983;53.016;-2.260;2023-09-19T12:10:57;0.10;;;0.10;;
59306;SDS011;47983;53.016;-2.260;2023-09-19T12:13:25;0.05;;;0.05;;
59306;SDS011;47983;53.016;-2.260;2023-09-19T12:15:56;0.20;;;0.10;;
59306;SDS011;47983;53.016;-2.260;2023-09-19T12:20:59;0.20;;;0.20;;
59306;SDS011;47983;53.016;-2.260;2023-09-19T12:23:29;0.30;;;0.15;;
59306;SDS011;47983;53.016;-2.260;2023-09-19T12:25:57;0.70;;;0.30;;
59306;SDS011;47983;53.016;-2.260;2023-09-19T12:28:30;0.10;;;0.10;;
59306;SDS011;47983;53.016;-2.260;2023-09-19T12:31:08;0.10;;;0.10;;
59306;SDS011;47983;53.016;-2.260;2023-09-19T12:33:36;1.17;;;0.13;;
59306;SDS011;47983;53.016;-2.260;2023-09-19T12:39:02;1.15;;;0.20;;
59306;SDS011;47983;53.016;-2.260;2023-09-19T12:41:37;1.65;;;0.63;;
59306;SDS011;47983;53.016;-2.260;2023-09-19T12:44:05;2.90;;;0.20;;
59306;SDS011;47983;53.016;-2.260;2023-09-19T12:46:36;0.85;;;0.20;;
59306;SDS011;47983;53.016;-2.260;2023-09-19T12:49:17;0.88;;;0.20;;
59306;SDS011;47983;53.016;-2.260;2023-09-19T12:51:46;3.50;;;0.35;;
59306;SDS011;47983;53.016;-2.260;2023-09-19T12:54:14;1.60;;;0.30;;
59306;SDS011;47983;53.016;-2.260;2023-09-19T12:56:46;0.45;;;0.20;;
59306;SDS011;47983;53.016;-2.260;2023-09-19T12:59:17;1.20;;;0.20;;
59306;SDS011;47983;53.016;-2.260;2023-09-19T13:02:03;4.93;;;1.77;;
59306;SDS011;47983;53.016;-2.260;2023-09-19T13:04:34;1.95;;;0.30;;
59306;SDS011;47983;53.016;-2.260;2023-09-19T13:07:07;2.03;;;0.30;;
59306;SDS011;47983;53.016;-2.260;2023-09-19T13:09:36;0.90;;;0.30;;
59306;SDS011;47983;53.016;-2.260;2023-09-19T13:12:34;1.90;;;0.45;;
59306;SDS011;47983;53.016;-2.260;2023-09-19T13:15:10;2.65;;;0.50;;
59306;SDS011;47983;53.016;-2.260;2023-09-19T13:17:44;2.53;;;0.50;;
59306;SDS011;47983;53.016;-2.260;2023-09-19T13:20:26;4.25;;;0.60;;
59306;SDS011;47983;53.016;-2.260;2023-09-19T13:22:55;7.13;;;0.77;;
59306;SDS011;47983;53.016;-2.260;2023-09-19T13:25:27;10.80;;;0.70;;
59306;SDS011;47983;53.016;-2.260;2023-09-19T13:27:57;7.07;;;0.73;;
59306;SDS011;47983;53.016;-2.260;2023-09-19T13:30:26;6.43;;;1.20;;
59306;SDS011;47983;53.016;-2.260;2023-09-19T13:33:06;4.53;;;1.20;;
59306;SDS011;47983;53.016;-2.260;2023-09-19T13:35:38;3.25;;;1.02;;
59306;SDS011;47983;53.016;-2.260;2023-09-19T13:38:08;7.35;;;0.90;;
59306;SDS011;47983;53.016;-2.260;2023-09-19T13:40:39;6.60;;;1.05;;
59306;SDS011;47983;53.016;-2.260;2023-09-19T13:43:09;5.70;;;1.35;;
59306;SDS011;47983;53.016;-2.260;2023-09-19T13:45:38;7.65;;;1.35;;
59306;SDS011;47983;53.016;-2.260;2023-09-19T13:48:09;9.23;;;1.70;;
59306;SDS011;47983;53.016;-2.260;2023-09-19T13:50:38;7.93;;;1.25;;
59306;SDS011;47983;53.016;-2.260;2023-09-19T13:53:09;12.77;;;1.80;;
59306;SDS011;47983;53.016;-2.260;2023-09-19T13:55:37;13.02;;;1.52;;
59306;SDS011;47983;53.016;-2.260;2023-09-19T13:58:05;4.82;;;1.33;;
59306;SDS011;47983;53.016;-2.260;2023-09-19T14:00:33;9.98;;;1.70;;
59306;SDS011;47983;53.016;-2.260;2023-09-19T14:03:01;9.60;;;2.15;;
59306;SDS011;47983;53.016;-2.260;2023-09-19T14:05:29;8.23;;;1.63;;
59306;SDS011;47983;53.016;-2.260;2023-09-19T14:07:58;6.53;;;1.10;;
59306;SDS011;47983;53.016;-2.260;2023-09-19T14:10:26;13.63;;;1.77;;
59306;SDS011;47983;53.016;-2.260;2023-09-19T14:12:54;13.77;;;2.15;;
59306;SDS011;47983;53.016;-2.260;2023-09-19T14:15:22;10.95;;;2.20;;
59306;SDS011;47983;53.016;-2.260;2023-09-19T14:17:57;15.82;;;2.83;;
59306;SDS011;47983;53.016;-2.260;2023-09-19T14:20:27;8.95;;;1.85;;
59306;SDS011;47983;53.016;-2.260;2023-09-19T14:22:54;7.13;;;1.60;;
59306;SDS011;47983;53.016;-2.260;2023-09-19T14:25:22;10.18;;;2.15;;
59306;SDS011;47983;53.016;-2.260;2023-09-19T14:27:50;12.23;;;2.05;;
59306;SDS011;47983;53.016;-2.260;2023-09-19T14:30:18;20.17;;;2.92;;
59306;SDS011;47983;53.016;-2.260;2023-09-19T14:32:46;7.07;;;1.60;;
59306;SDS011;47983;53.016;-2.260;2023-09-19T14:35:17;12.10;;;2.00;;
59306;SDS011;47983;53.016;-2.260;2023-09-19T14:37:44;8.40;;;1.40;;
59306;SDS011;47983;53.016;-2.260;2023-09-19T14:40:12;8.45;;;2.00;;
59306;SDS011;47983;53.016;-2.260;2023-09-19T14:42:45;9.43;;;1.67;;
59306;SDS011;47983;53.016;-2.260;2023-09-19T14:45:15;9.45;;;1.67;;
59306;SDS011;47983;53.016;-2.260;2023-09-19T14:47:48;11.52;;;2.05;;
59306;SDS011;47983;53.016;-2.260;2023-09-19T14:50:22;10.82;;;1.95;;
59306;SDS011;47983;53.016;-2.260;2023-09-19T14:52:50;10.05;;;1.67;;
59306;SDS011;47983;53.016;-2.260;2023-09-19T14:55:19;6.57;;;1.10;;
59306;SDS011;47983;53.016;-2.260;2023-09-19T14:57:48;10.57;;;1.70;;
59306;SDS011;47983;53.016;-2.260;2023-09-19T15:00:18;18.20;;;4.45;;
59306;SDS011;47983;53.016;-2.260;2023-09-19T15:02:48;13.32;;;2.08;;
59306;SDS011;47983;53.016;-2.260;2023-09-19T15:05:17;12.10;;;2.00;;
59306;SDS011;47983;53.016;-2.260;2023-09-19T15:07:47;10.30;;;1.77;;
59306;SDS011;47983;53.016;-2.260;2023-09-19T15:10:14;6.47;;;1.50;;
59306;SDS011;47983;53.016;-2.260;2023-09-19T15:12:43;28.63;;;2.57;;
59306;SDS011;47983;53.016;-2.260;2023-09-19T15:15:11;5.05;;;1.27;;
59306;SDS011;47983;53.016;-2.260;2023-09-19T15:17:40;10.27;;;1.70;;
59306;SDS011;47983;53.016;-2.260;2023-09-19T15:20:08;11.77;;;2.40;;
59306;SDS011;47983;53.016;-2.260;2023-09-19T15:22:36;16.90;;;1.80;;
59306;SDS011;47983;53.016;-2.260;2023-09-19T15:25:04;10.75;;;1.92;;
59306;SDS011;47983;53.016;-2.260;2023-09-19T15:27:34;10.35;;;1.67;;
59306;SDS011;47983;53.016;-2.260;2023-09-19T15:30:04;7.20;;;1.83;;
59306;SDS011;47983;53.016;-2.260;2023-09-19T15:32:32;16.15;;;2.22;;
59306;SDS011;47983;53.016;-2.260;2023-09-19T15:35:00;11.43;;;2.10;;
59306;SDS011;47983;53.016;-2.260;2023-09-19T15:37:28;10.95;;;1.70;;
59306;SDS011;47983;53.016;-2.260;2023-09-19T15:39:56;10.45;;;2.30;;
59306;SDS011;47983;53.016;-2.260;2023-09-19T15:42:24;8.50;;;0.98;;
59306;SDS011;47983;53.016;-2.260;2023-09-19T15:44:52;10.80;;;2.13;;
59306;SDS011;47983;53.016;-2.260;2023-09-19T15:47:20;10.95;;;1.70;;
59306;SDS011;47983;53.016;-2.260;2023-09-19T15:49:48;10.32;;;1.80;;
59306;SDS011;47983;53.016;-2.260;2023-09-19T15:52:17;13.65;;;1.50;;
59306;SDS011;47983;53.016;-2.260;2023-09-19T15:54:44;6.47;;;1.17;;
59306;SDS011;47983;53.016;-2.260;2023-09-19T15:57:12;11.70;;;1.42;;
59306;SDS011;47983;53.016;-2.260;2023-09-19T15:59:41;6.88;;;1.08;;